sensor_id;sensor_type;location;lat;lon;timestamp;P1;durP1;ratioP1;P2;durP2;ratioP2
9848;SDS011;4963;51.444;6.528;2023-03-24T00:02:20;3.00;;;2.03;;
9848;SDS011;4963;51.444;6.528;2023-03-24T00:04:47;4.70;;;2.40;;
9848;SDS011;4963;51.444;6.528;2023-03-24T00:07:17;4.57;;;2.30;;
9848;SDS011;4963;51.444;6.528;2023-03-24T00:09:49;3.50;;;2.03;;
9848;SDS011;4963;51.444;6.528;2023-03-24T00:12:16;5.07;;;2.40;;
9848;SDS011;4963;51.444;6.528;2023-03-24T00:14:43;3.47;;;2.23;;
9848;SDS011;4963;51.444;6.528;2023-03-24T00:17:11;3.17;;;2.00;;
9848;SDS011;4963;51.444;6.528;2023-03-24T00:19:41;5.50;;;2.30;;
9848;SDS011;4963;51.444;6.528;2023-03-24T00:22:09;3.57;;;2.50;;
9848;SDS011;4963;51.444;6.528;2023-03-24T00:24:38;4.83;;;2.17;;
9848;SDS011;4963;51.444;6.528;2023-03-24T00:27:07;3.47;;;2.33;;
9848;SDS011;4963;51.444;6.528;2023-03-24T00:29:37;4.00;;;2.67;;
9848;SDS011;4963;51.444;6.528;2023-03-24T00:32:05;2.50;;;2.07;;
9848;SDS011;4963;51.444;6.528;2023-03-24T00:34:32;3.07;;;2.23;;
9848;SDS011;4963;51.444;6.528;2023-03-24T00:37:02;5.00;;;2.60;;
9848;SDS011;4963;51.444;6.528;2023-03-24T00:39:29;3.33;;;2.20;;
9848;SDS011;4963;51.444;6.528;2023-03-24T00:41:56;4.60;;;2.43;;
9848;SDS011;4963;51.444;6.528;2023-03-24T00:44:27;2.77;;;2.10;;
9848;SDS011;4963;51.444;6.528;2023-03-24T00:46:54;4.33;;;2.03;;
9848;SDS011;4963;51.444;6.528;2023-03-24T00:49:21;4.47;;;2.10;;
9848;SDS011;4963;51.444;6.528;2023-03-24T00:52:06;4.13;;;2.63;;
9848;SDS011;4963;51.444;6.528;2023-03-24T00:54:35;3.57;;;2.30;;
9848;SDS011;4963;51.444;6.528;2023-03-24T00:57:02;3.63;;;2.47;;
9848;SDS011;4963;51.444;6.528;2023-03-24T00:59:30;3.30;;;2.10;;
9848;SDS011;4963;51.444;6.528;2023-03-24T01:02:02;3.73;;;2.17;;
9848;SDS011;4963;51.444;6.528;2023-03-24T01:04:29;3.10;;;2.03;;
9848;SDS011;4963;51.444;6.528;2023-03-24T01:07:00;5.20;;;2.00;;
9848;SDS011;4963;51.444;6.528;2023-03-24T01:09:27;2.57;;;2.17;;
9848;SDS011;4963;51.444;6.528;2023-03-24T01:11:53;3.73;;;2.13;;
9848;SDS011;4963;51.444;6.528;2023-03-24T01:14:21;3.07;;;2.10;;
9848;SDS011;4963;51.444;6.528;2023-03-24T01:16:49;4.20;;;2.10;;
9848;SDS011;4963;51.444;6.528;2023-03-24T01:19:17;2.47;;;2.20;;
9848;SDS011;4963;51.444;6.528;2023-03-24T01:21:44;3.97;;;2.37;;
9848;SDS011;4963;51.444;6.528;2023-03-24T01:24:12;2.40;;;2.10;;
9848;SDS011;4963;51.444;6.528;2023-03-24T01:26:39;3.50;;;2.30;;
9848;SDS011;4963;51.444;6.528;2023-03-24T01:29:06;2.60;;;1.83;;
9848;SDS011;4963;51.444;6.528;2023-03-24T01:31:33;2.47;;;2.27;;
9848;SDS011;4963;51.444;6.528;2023-03-24T01:34:02;3.13;;;2.03;;
9848;SDS011;4963;51.444;6.528;2023-03-24T01:36:29;2.60;;;2.17;;
9848;SDS011;4963;51.444;6.528;2023-03-24T01:38:56;3.17;;;2.50;;
9848;SDS011;4963;51.444;6.528;2023-03-24T01:41:25;3.20;;;2.40;;
9848;SDS011;4963;51.444;6.528;2023-03-24T01:43:53;3.27;;;2.33;;
9848;SDS011;4963;51.444;6.528;2023-03-24T01:46:20;2.87;;;2.13;;
9848;SDS011;4963;51.444;6.528;2023-03-24T01:48:49;3.20;;;2.23;;
9848;SDS011;4963;51.444;6.528;2023-03-24T01:51:20;3.50;;;2.10;;
9848;SDS011;4963;51.444;6.528;2023-03-24T01:53:50;3.00;;;2.23;;
9848;SDS011;4963;51.444;6.528;2023-03-24T01:56:20;3.00;;;2.30;;
9848;SDS011;4963;51.444;6.528;2023-03-24T01:58:50;3.47;;;2.57;;
9848;SDS011;4963;51.444;6.528;2023-03-24T02:01:21;3.43;;;2.53;;
9848;SDS011;4963;51.444;6.528;2023-03-24T02:03:50;3.07;;;2.40;;
9848;SDS011;4963;51.444;6.528;2023-03-24T02:06:18;2.70;;;2.30;;
9848;SDS011;4963;51.444;6.528;2023-03-24T02:08:48;3.00;;;2.70;;
9848;SDS011;4963;51.444;6.528;2023-03-24T02:11:17;3.57;;;2.47;;
9848;SDS011;4963;51.444;6.528;2023-03-24T02:13:46;4.03;;;2.50;;
9848;SDS011;4963;51.444;6.528;2023-03-24T02:16:23;4.70;;;3.07;;
9848;SDS011;4963;51.444;6.528;2023-03-24T02:19:13;5.50;;;2.20;;
9848;SDS011;4963;51.444;6.528;2023-03-24T02:22:15;3.80;;;2.73;;
9848;SDS011;4963;51.444;6.528;2023-03-24T02:25:13;3.20;;;2.30;;
9848;SDS011;4963;51.444;6.528;2023-03-24T02:28:14;3.83;;;2.47;;
9848;SDS011;4963;51.444;6.528;2023-03-24T02:30:53;4.23;;;2.70;;
9848;SDS011;4963;51.444;6.528;2023-03-24T02:39:59;3.20;;;2.77;;
9848;SDS011;4963;51.444;6.528;2023-03-24T02:42:40;2.80;;;2.50;;
9848;SDS011;4963;51.444;6.528;2023-03-24T02:45:17;3.73;;;2.90;;
9848;SDS011;4963;51.444;6.528;2023-03-24T02:47:52;3.13;;;2.50;;
9848;SDS011;4963;51.444;6.528;2023-03-24T02:50:25;4.07;;;2.50;;
9848;SDS011;4963;51.444;6.528;2023-03-24T02:52:58;2.93;;;2.43;;
9848;SDS011;4963;51.444;6.528;2023-03-24T02:55:33;4.27;;;2.80;;
9848;SDS011;4963;51.444;6.528;2023-03-24T02:58:05;3.40;;;2.77;;
9848;SDS011;4963;51.444;6.528;2023-03-24T03:00:37;3.13;;;2.73;;
9848;SDS011;4963;51.444;6.528;2023-03-24T03:03:11;3.60;;;3.03;;
9848;SDS011;4963;51.444;6.528;2023-03-24T03:05:44;4.20;;;2.80;;
9848;SDS011;4963;51.444;6.528;2023-03-24T03:08:15;4.20;;;2.97;;
9848;SDS011;4963;51.444;6.528;2023-03-24T03:10:47;3.63;;;2.90;;
9848;SDS011;4963;51.444;6.528;2023-03-24T03:13:17;3.37;;;2.73;;
9848;SDS011;4963;51.444;6.528;2023-03-24T03:15:49;3.53;;;2.83;;
9848;SDS011;4963;51.444;6.528;2023-03-24T03:18:20;3.30;;;3.00;;
9848;SDS011;4963;51.444;6.528;2023-03-24T03:20:51;3.27;;;2.40;;
9848;SDS011;4963;51.444;6.528;2023-03-24T03:23:22;5.10;;;3.07;;
9848;SDS011;4963;51.444;6.528;2023-03-24T03:25:54;4.00;;;2.50;;
9848;SDS011;4963;51.444;6.528;2023-03-24T03:28:28;3.77;;;2.53;;
9848;SDS011;4963;51.444;6.528;2023-03-24T03:30:57;3.40;;;2.70;;
9848;SDS011;4963;51.444;6.528;2023-03-24T03:33:30;3.90;;;2.83;;
9848;SDS011;4963;51.444;6.528;2023-03-24T03:36:02;3.90;;;2.43;;
9848;SDS011;4963;51.444;6.528;2023-03-24T03:38:35;6.13;;;2.57;;
9848;SDS011;4963;51.444;6.528;2023-03-24T03:41:11;3.57;;;2.53;;
9848;SDS011;4963;51.444;6.528;2023-03-24T03:43:40;4.20;;;2.87;;
9848;SDS011;4963;51.444;6.528;2023-03-24T03:46:07;4.40;;;2.40;;
9848;SDS011;4963;51.444;6.528;2023-03-24T03:48:34;3.63;;;2.73;;
9848;SDS011;4963;51.444;6.528;2023-03-24T03:51:03;3.37;;;2.30;;
9848;SDS011;4963;51.444;6.528;2023-03-24T03:53:30;3.47;;;2.20;;
9848;SDS011;4963;51.444;6.528;2023-03-24T03:56:03;2.97;;;2.50;;
9848;SDS011;4963;51.444;6.528;2023-03-24T03:58:32;3.20;;;2.70;;
9848;SDS011;4963;51.444;6.528;2023-03-24T04:00:59;3.90;;;2.70;;
9848;SDS011;4963;51.444;6.528;2023-03-24T04:03:31;2.60;;;2.23;;
9848;SDS011;4963;51.444;6.528;2023-03-24T04:06:11;3.30;;;2.47;;
9848;SDS011;4963;51.444;6.528;2023-03-24T04:08:45;4.17;;;2.13;;
9848;SDS011;4963;51.444;6.528;2023-03-24T04:14:17;2.80;;;2.10;;
9848;SDS011;4963;51.444;6.528;2023-03-24T04:16:57;3.67;;;2.10;;
9848;SDS011;4963;51.444;6.528;2023-03-24T04:19:36;3.50;;;2.30;;
9848;SDS011;4963;51.444;6.528;2023-03-24T04:22:15;2.67;;;1.97;;
9848;SDS011;4963;51.444;6.528;2023-03-24T04:24:50;4.13;;;2.20;;
9848;SDS011;4963;51.444;6.528;2023-03-24T04:27:22;2.00;;;1.80;;
9848;SDS011;4963;51.444;6.528;2023-03-24T04:30:01;3.40;;;1.90;;
9848;SDS011;4963;51.444;6.528;2023-03-24T04:32:34;3.07;;;2.00;;
9848;SDS011;4963;51.444;6.528;2023-03-24T04:35:08;3.67;;;2.00;;
9848;SDS011;4963;51.444;6.528;2023-03-24T04:37:38;2.53;;;1.90;;
9848;SDS011;4963;51.444;6.528;2023-03-24T04:40:07;2.70;;;2.00;;
9848;SDS011;4963;51.444;6.528;2023-03-24T04:42:36;3.37;;;1.97;;
9848;SDS011;4963;51.444;6.528;2023-03-24T04:45:08;3.83;;;2.10;;
9848;SDS011;4963;51.444;6.528;2023-03-24T04:47:37;1.87;;;1.50;;
9848;SDS011;4963;51.444;6.528;2023-03-24T04:50:09;3.03;;;1.80;;
9848;SDS011;4963;51.444;6.528;2023-03-24T04:52:37;3.13;;;1.60;;
9848;SDS011;4963;51.444;6.528;2023-03-24T04:55:12;2.60;;;1.70;;
9848;SDS011;4963;51.444;6.528;2023-03-24T04:57:50;3.73;;;2.10;;
9848;SDS011;4963;51.444;6.528;2023-03-24T05:00:18;2.63;;;1.83;;
9848;SDS011;4963;51.444;6.528;2023-03-24T05:02:45;5.23;;;2.60;;
9848;SDS011;4963;51.444;6.528;2023-03-24T05:05:12;3.67;;;2.40;;
9848;SDS011;4963;51.444;6.528;2023-03-24T05:07:40;5.67;;;2.97;;
9848;SDS011;4963;51.444;6.528;2023-03-24T05:10:08;3.47;;;2.40;;
9848;SDS011;4963;51.444;6.528;2023-03-24T05:12:35;2.80;;;2.10;;
9848;SDS011;4963;51.444;6.528;2023-03-24T05:15:02;2.97;;;2.43;;
9848;SDS011;4963;51.444;6.528;2023-03-24T05:17:32;5.47;;;2.50;;
9848;SDS011;4963;51.444;6.528;2023-03-24T05:19:59;3.93;;;2.20;;
9848;SDS011;4963;51.444;6.528;2023-03-24T05:22:25;6.03;;;2.47;;
9848;SDS011;4963;51.444;6.528;2023-03-24T05:24:52;6.77;;;2.40;;
9848;SDS011;4963;51.444;6.528;2023-03-24T05:27:19;4.43;;;1.90;;
9848;SDS011;4963;51.444;6.528;2023-03-24T05:29:45;3.90;;;2.00;;
9848;SDS011;4963;51.444;6.528;2023-03-24T05:32:12;2.90;;;1.90;;
9848;SDS011;4963;51.444;6.528;2023-03-24T05:34:40;7.30;;;2.47;;
9848;SDS011;4963;51.444;6.528;2023-03-24T05:37:07;4.70;;;2.20;;
9848;SDS011;4963;51.444;6.528;2023-03-24T05:39:37;4.73;;;2.20;;
9848;SDS011;4963;51.444;6.528;2023-03-24T05:42:03;7.67;;;1.97;;
9848;SDS011;4963;51.444;6.528;2023-03-24T05:44:30;2.90;;;2.10;;
9848;SDS011;4963;51.444;6.528;2023-03-24T05:46:57;5.00;;;2.40;;
9848;SDS011;4963;51.444;6.528;2023-03-24T05:49:24;5.37;;;2.03;;
9848;SDS011;4963;51.444;6.528;2023-03-24T05:51:52;7.60;;;1.90;;
9848;SDS011;4963;51.444;6.528;2023-03-24T05:54:19;9.60;;;2.73;;
9848;SDS011;4963;51.444;6.528;2023-03-24T05:56:46;6.60;;;2.17;;
9848;SDS011;4963;51.444;6.528;2023-03-24T05:59:13;8.20;;;2.10;;
9848;SDS011;4963;51.444;6.528;2023-03-24T06:01:41;7.07;;;2.40;;
9848;SDS011;4963;51.444;6.528;2023-03-24T06:04:08;4.23;;;2.00;;
9848;SDS011;4963;51.444;6.528;2023-03-24T06:06:35;6.03;;;2.00;;
9848;SDS011;4963;51.444;6.528;2023-03-24T06:09:04;6.93;;;2.13;;
9848;SDS011;4963;51.444;6.528;2023-03-24T06:11:30;6.73;;;2.03;;
9848;SDS011;4963;51.444;6.528;2023-03-24T06:13:57;6.27;;;1.77;;
9848;SDS011;4963;51.444;6.528;2023-03-24T06:16:24;4.40;;;1.83;;
9848;SDS011;4963;51.444;6.528;2023-03-24T06:18:51;6.40;;;2.10;;
9848;SDS011;4963;51.444;6.528;2023-03-24T06:21:18;8.47;;;2.00;;
9848;SDS011;4963;51.444;6.528;2023-03-24T06:23:45;9.53;;;2.93;;
9848;SDS011;4963;51.444;6.528;2023-03-24T06:26:13;6.20;;;2.50;;
9848;SDS011;4963;51.444;6.528;2023-03-24T06:28:40;6.03;;;2.10;;
9848;SDS011;4963;51.444;6.528;2023-03-24T06:31:08;12.93;;;2.30;;
9848;SDS011;4963;51.444;6.528;2023-03-24T06:33:38;2.73;;;1.40;;
9848;SDS011;4963;51.444;6.528;2023-03-24T06:36:06;7.20;;;2.47;;
9848;SDS011;4963;51.444;6.528;2023-03-24T06:38:34;7.37;;;2.27;;
9848;SDS011;4963;51.444;6.528;2023-03-24T06:41:00;11.93;;;2.87;;
9848;SDS011;4963;51.444;6.528;2023-03-24T06:43:29;5.43;;;2.00;;
9848;SDS011;4963;51.444;6.528;2023-03-24T06:45:56;7.07;;;2.20;;
9848;SDS011;4963;51.444;6.528;2023-03-24T06:48:23;7.13;;;2.20;;
9848;SDS011;4963;51.444;6.528;2023-03-24T06:50:51;7.60;;;2.20;;
9848;SDS011;4963;51.444;6.528;2023-03-24T06:53:18;7.70;;;2.40;;
9848;SDS011;4963;51.444;6.528;2023-03-24T06:55:45;6.30;;;2.00;;
9848;SDS011;4963;51.444;6.528;2023-03-24T06:58:12;9.87;;;2.77;;
9848;SDS011;4963;51.444;6.528;2023-03-24T07:00:41;8.43;;;2.30;;
9848;SDS011;4963;51.444;6.528;2023-03-24T07:03:08;8.77;;;2.77;;
9848;SDS011;4963;51.444;6.528;2023-03-24T07:05:36;7.87;;;2.43;;
9848;SDS011;4963;51.444;6.528;2023-03-24T07:08:03;8.33;;;2.00;;
9848;SDS011;4963;51.444;6.528;2023-03-24T07:10:30;5.67;;;2.00;;
9848;SDS011;4963;51.444;6.528;2023-03-24T07:12:57;8.67;;;2.20;;
9848;SDS011;4963;51.444;6.528;2023-03-24T07:15:25;6.00;;;2.07;;
9848;SDS011;4963;51.444;6.528;2023-03-24T07:17:53;5.80;;;2.00;;
9848;SDS011;4963;51.444;6.528;2023-03-24T07:20:20;6.60;;;2.45;;
9848;SDS011;4963;51.444;6.528;2023-03-24T07:22:47;8.35;;;2.22;;
9848;SDS011;4963;51.444;6.528;2023-03-24T07:25:13;7.75;;;2.22;;
9848;SDS011;4963;51.444;6.528;2023-03-24T07:27:44;6.53;;;2.42;;
9848;SDS011;4963;51.444;6.528;2023-03-24T07:30:12;8.23;;;2.70;;
9848;SDS011;4963;51.444;6.528;2023-03-24T07:32:39;8.45;;;2.78;;
9848;SDS011;4963;51.444;6.528;2023-03-24T07:35:08;6.33;;;2.30;;
9848;SDS011;4963;51.444;6.528;2023-03-24T07:37:37;7.78;;;2.10;;
9848;SDS011;4963;51.444;6.528;2023-03-24T07:40:05;9.37;;;3.07;;
9848;SDS011;4963;51.444;6.528;2023-03-24T07:42:36;8.17;;;2.20;;
9848;SDS011;4963;51.444;6.528;2023-03-24T07:45:03;7.97;;;2.73;;
9848;SDS011;4963;51.444;6.528;2023-03-24T07:47:32;9.07;;;2.30;;
9848;SDS011;4963;51.444;6.528;2023-03-24T07:49:59;7.37;;;2.90;;
9848;SDS011;4963;51.444;6.528;2023-03-24T07:52:29;10.43;;;2.43;;
9848;SDS011;4963;51.444;6.528;2023-03-24T07:54:56;8.53;;;2.60;;
9848;SDS011;4963;51.444;6.528;2023-03-24T07:57:23;8.90;;;2.13;;
9848;SDS011;4963;51.444;6.528;2023-03-24T07:59:49;6.87;;;2.23;;
9848;SDS011;4963;51.444;6.528;2023-03-24T08:02:16;7.47;;;2.43;;
9848;SDS011;4963;51.444;6.528;2023-03-24T08:04:44;6.63;;;2.00;;
9848;SDS011;4963;51.444;6.528;2023-03-24T08:07:11;8.13;;;2.30;;
9848;SDS011;4963;51.444;6.528;2023-03-24T08:09:39;7.73;;;2.20;;
9848;SDS011;4963;51.444;6.528;2023-03-24T08:12:06;7.20;;;2.30;;
9848;SDS011;4963;51.444;6.528;2023-03-24T08:14:33;6.20;;;2.27;;
9848;SDS011;4963;51.444;6.528;2023-03-24T08:17:00;9.17;;;2.87;;
9848;SDS011;4963;51.444;6.528;2023-03-24T08:19:26;8.47;;;2.93;;
9848;SDS011;4963;51.444;6.528;2023-03-24T08:21:53;8.30;;;2.77;;
9848;SDS011;4963;51.444;6.528;2023-03-24T08:24:20;8.23;;;2.63;;
9848;SDS011;4963;51.444;6.528;2023-03-24T08:26:48;9.07;;;2.80;;
9848;SDS011;4963;51.444;6.528;2023-03-24T08:29:15;9.80;;;2.70;;
9848;SDS011;4963;51.444;6.528;2023-03-24T08:31:42;8.10;;;2.70;;
9848;SDS011;4963;51.444;6.528;2023-03-24T08:34:08;9.63;;;3.13;;
9848;SDS011;4963;51.444;6.528;2023-03-24T08:36:36;5.33;;;2.50;;
9848;SDS011;4963;51.444;6.528;2023-03-24T08:39:03;8.83;;;2.67;;
9848;SDS011;4963;51.444;6.528;2023-03-24T08:41:34;7.10;;;2.30;;
9848;SDS011;4963;51.444;6.528;2023-03-24T08:44:02;8.95;;;2.92;;
9848;SDS011;4963;51.444;6.528;2023-03-24T08:46:30;7.05;;;2.92;;
9848;SDS011;4963;51.444;6.528;2023-03-24T08:48:57;8.07;;;2.60;;
9848;SDS011;4963;51.444;6.528;2023-03-24T08:51:25;8.27;;;2.73;;
9848;SDS011;4963;51.444;6.528;2023-03-24T08:53:52;8.38;;;2.97;;
9848;SDS011;4963;51.444;6.528;2023-03-24T08:56:19;9.13;;;2.97;;
9848;SDS011;4963;51.444;6.528;2023-03-24T08:58:46;10.10;;;2.93;;
9848;SDS011;4963;51.444;6.528;2023-03-24T09:01:16;11.20;;;3.00;;
9848;SDS011;4963;51.444;6.528;2023-03-24T09:03:43;7.87;;;3.10;;
9848;SDS011;4963;51.444;6.528;2023-03-24T09:06:10;10.07;;;2.90;;
9848;SDS011;4963;51.444;6.528;2023-03-24T09:08:37;7.23;;;2.70;;
9848;SDS011;4963;51.444;6.528;2023-03-24T09:11:05;8.77;;;2.90;;
9848;SDS011;4963;51.444;6.528;2023-03-24T09:13:32;9.73;;;3.03;;
9848;SDS011;4963;51.444;6.528;2023-03-24T09:16:01;7.63;;;2.63;;
9848;SDS011;4963;51.444;6.528;2023-03-24T09:18:29;11.10;;;2.83;;
9848;SDS011;4963;51.444;6.528;2023-03-24T09:20:56;7.57;;;2.70;;
9848;SDS011;4963;51.444;6.528;2023-03-24T09:23:23;8.97;;;2.90;;
9848;SDS011;4963;51.444;6.528;2023-03-24T09:25:53;8.80;;;2.50;;
9848;SDS011;4963;51.444;6.528;2023-03-24T09:28:20;9.50;;;2.93;;
9848;SDS011;4963;51.444;6.528;2023-03-24T09:30:47;8.30;;;2.70;;
9848;SDS011;4963;51.444;6.528;2023-03-24T09:33:14;7.37;;;2.50;;
9848;SDS011;4963;51.444;6.528;2023-03-24T09:35:42;7.70;;;2.47;;
9848;SDS011;4963;51.444;6.528;2023-03-24T09:38:10;11.07;;;2.80;;
9848;SDS011;4963;51.444;6.528;2023-03-24T09:40:37;8.97;;;2.70;;
9848;SDS011;4963;51.444;6.528;2023-03-24T09:43:08;7.83;;;3.03;;
9848;SDS011;4963;51.444;6.528;2023-03-24T09:45:43;11.57;;;2.80;;
9848;SDS011;4963;51.444;6.528;2023-03-24T09:48:16;11.17;;;2.67;;
9848;SDS011;4963;51.444;6.528;2023-03-24T09:50:50;5.70;;;2.47;;
9848;SDS011;4963;51.444;6.528;2023-03-24T09:53:23;7.97;;;2.33;;
9848;SDS011;4963;51.444;6.528;2023-03-24T09:55:56;8.07;;;2.97;;
9848;SDS011;4963;51.444;6.528;2023-03-24T09:58:28;8.90;;;2.70;;
9848;SDS011;4963;51.444;6.528;2023-03-24T10:00:57;10.30;;;2.60;;
9848;SDS011;4963;51.444;6.528;2023-03-24T10:03:25;11.90;;;2.67;;
9848;SDS011;4963;51.444;6.528;2023-03-24T10:05:55;10.43;;;2.37;;
9848;SDS011;4963;51.444;6.528;2023-03-24T10:08:26;7.50;;;2.77;;
9848;SDS011;4963;51.444;6.528;2023-03-24T10:10:58;8.33;;;2.43;;
9848;SDS011;4963;51.444;6.528;2023-03-24T10:13:30;7.27;;;2.50;;
9848;SDS011;4963;51.444;6.528;2023-03-24T10:16:09;6.80;;;2.43;;
9848;SDS011;4963;51.444;6.528;2023-03-24T10:18:44;6.10;;;2.30;;
9848;SDS011;4963;51.444;6.528;2023-03-24T10:21:19;8.40;;;2.60;;
9848;SDS011;4963;51.444;6.528;2023-03-24T10:23:50;8.57;;;2.63;;
9848;SDS011;4963;51.444;6.528;2023-03-24T10:26:26;6.80;;;2.20;;
9848;SDS011;4963;51.444;6.528;2023-03-24T10:29:08;7.80;;;1.97;;
9848;SDS011;4963;51.444;6.528;2023-03-24T10:31:46;5.60;;;2.17;;
9848;SDS011;4963;51.444;6.528;2023-03-24T10:34:16;5.07;;;1.93;;
9848;SDS011;4963;51.444;6.528;2023-03-24T10:36:45;6.53;;;2.00;;
9848;SDS011;4963;51.444;6.528;2023-03-24T10:39:13;9.77;;;2.87;;
9848;SDS011;4963;51.444;6.528;2023-03-24T10:41:42;6.17;;;2.33;;
9848;SDS011;4963;51.444;6.528;2023-03-24T10:44:10;7.57;;;2.47;;
9848;SDS011;4963;51.444;6.528;2023-03-24T10:46:40;9.00;;;2.90;;
9848;SDS011;4963;51.444;6.528;2023-03-24T10:49:14;14.90;;;2.73;;
9848;SDS011;4963;51.444;6.528;2023-03-24T10:51:44;5.53;;;1.70;;
9848;SDS011;4963;51.444;6.528;2023-03-24T10:54:17;5.80;;;2.10;;
9848;SDS011;4963;51.444;6.528;2023-03-24T10:56:46;5.60;;;1.90;;
9848;SDS011;4963;51.444;6.528;2023-03-24T10:59:18;6.73;;;2.00;;
9848;SDS011;4963;51.444;6.528;2023-03-24T11:01:54;9.13;;;2.50;;
9848;SDS011;4963;51.444;6.528;2023-03-24T11:04:24;7.17;;;2.20;;
9848;SDS011;4963;51.444;6.528;2023-03-24T11:06:58;9.47;;;2.47;;
9848;SDS011;4963;51.444;6.528;2023-03-24T11:09:29;6.07;;;1.83;;
9848;SDS011;4963;51.444;6.528;2023-03-24T11:12:05;6.37;;;1.83;;
9848;SDS011;4963;51.444;6.528;2023-03-24T11:14:47;4.00;;;1.73;;
9848;SDS011;4963;51.444;6.528;2023-03-24T11:17:14;7.77;;;2.23;;
9848;SDS011;4963;51.444;6.528;2023-03-24T11:19:49;8.47;;;2.30;;
9848;SDS011;4963;51.444;6.528;2023-03-24T11:22:18;5.80;;;1.80;;
9848;SDS011;4963;51.444;6.528;2023-03-24T11:24:46;7.20;;;2.40;;
9848;SDS011;4963;51.444;6.528;2023-03-24T11:27:16;7.43;;;2.40;;
9848;SDS011;4963;51.444;6.528;2023-03-24T11:29:44;12.83;;;2.70;;
9848;SDS011;4963;51.444;6.528;2023-03-24T11:32:17;4.53;;;2.10;;
9848;SDS011;4963;51.444;6.528;2023-03-24T11:34:49;5.90;;;2.50;;
9848;SDS011;4963;51.444;6.528;2023-03-24T11:37:25;5.73;;;2.40;;
9848;SDS011;4963;51.444;6.528;2023-03-24T11:42:52;8.03;;;2.20;;
9848;SDS011;4963;51.444;6.528;2023-03-24T11:45:24;6.57;;;2.10;;
9848;SDS011;4963;51.444;6.528;2023-03-24T11:47:55;7.80;;;2.23;;
9848;SDS011;4963;51.444;6.528;2023-03-24T11:50:24;6.43;;;2.30;;
9848;SDS011;4963;51.444;6.528;2023-03-24T11:52:58;8.37;;;2.27;;
9848;SDS011;4963;51.444;6.528;2023-03-24T11:55:31;7.30;;;2.03;;
9848;SDS011;4963;51.444;6.528;2023-03-24T11:58:08;4.37;;;1.87;;
9848;SDS011;4963;51.444;6.528;2023-03-24T12:00:41;9.20;;;2.67;;
9848;SDS011;4963;51.444;6.528;2023-03-24T12:06:14;6.63;;;2.43;;
9848;SDS011;4963;51.444;6.528;2023-03-24T12:08:53;9.03;;;3.13;;
9848;SDS011;4963;51.444;6.528;2023-03-24T12:11:27;6.90;;;2.50;;
9848;SDS011;4963;51.444;6.528;2023-03-24T12:14:06;5.93;;;2.20;;
9848;SDS011;4963;51.444;6.528;2023-03-24T12:16:39;4.50;;;1.90;;
9848;SDS011;4963;51.444;6.528;2023-03-24T12:19:18;6.30;;;2.30;;
9848;SDS011;4963;51.444;6.528;2023-03-24T12:21:55;5.53;;;2.20;;
9848;SDS011;4963;51.444;6.528;2023-03-24T12:24:32;6.03;;;2.30;;
9848;SDS011;4963;51.444;6.528;2023-03-24T12:27:13;6.93;;;2.63;;
9848;SDS011;4963;51.444;6.528;2023-03-24T12:29:52;6.70;;;2.50;;
9848;SDS011;4963;51.444;6.528;2023-03-24T12:32:31;5.77;;;2.60;;
9848;SDS011;4963;51.444;6.528;2023-03-24T12:35:14;5.17;;;2.27;;
9848;SDS011;4963;51.444;6.528;2023-03-24T12:37:51;7.00;;;2.20;;
9848;SDS011;4963;51.444;6.528;2023-03-24T12:40:44;5.87;;;2.47;;
9848;SDS011;4963;51.444;6.528;2023-03-24T12:43:30;5.33;;;1.93;;
9848;SDS011;4963;51.444;6.528;2023-03-24T12:46:05;6.50;;;2.27;;
9848;SDS011;4963;51.444;6.528;2023-03-24T12:51:36;11.73;;;2.70;;
9848;SDS011;4963;51.444;6.528;2023-03-24T12:54:16;6.47;;;2.20;;
9848;SDS011;4963;51.444;6.528;2023-03-24T12:56:55;6.07;;;2.50;;
9848;SDS011;4963;51.444;6.528;2023-03-24T12:59:28;6.50;;;2.20;;
9848;SDS011;4963;51.444;6.528;2023-03-24T13:02:02;7.13;;;2.60;;
9848;SDS011;4963;51.444;6.528;2023-03-24T13:04:38;8.27;;;2.53;;
9848;SDS011;4963;51.444;6.528;2023-03-24T13:07:07;5.53;;;2.53;;
9848;SDS011;4963;51.444;6.528;2023-03-24T13:09:37;6.20;;;2.60;;
9848;SDS011;4963;51.444;6.528;2023-03-24T13:12:12;7.90;;;2.97;;
9848;SDS011;4963;51.444;6.528;2023-03-24T13:14:45;7.07;;;2.63;;
9848;SDS011;4963;51.444;6.528;2023-03-24T13:17:18;10.63;;;2.93;;
9848;SDS011;4963;51.444;6.528;2023-03-24T13:19:49;6.33;;;2.90;;
9848;SDS011;4963;51.444;6.528;2023-03-24T13:22:17;8.33;;;2.73;;
9848;SDS011;4963;51.444;6.528;2023-03-24T13:24:48;5.63;;;2.73;;
9848;SDS011;4963;51.444;6.528;2023-03-24T13:27:18;8.10;;;2.60;;
9848;SDS011;4963;51.444;6.528;2023-03-24T13:32:57;9.33;;;2.60;;
9848;SDS011;4963;51.444;6.528;2023-03-24T13:35:31;6.37;;;2.07;;
9848;SDS011;4963;51.444;6.528;2023-03-24T13:38:17;8.43;;;2.97;;
9848;SDS011;4963;51.444;6.528;2023-03-24T13:40:48;4.80;;;1.90;;
9848;SDS011;4963;51.444;6.528;2023-03-24T13:43:19;3.90;;;1.37;;
9848;SDS011;4963;51.444;6.528;2023-03-24T13:45:48;1.60;;;0.97;;
9848;SDS011;4963;51.444;6.528;2023-03-24T13:48:18;5.27;;;1.57;;
9848;SDS011;4963;51.444;6.528;2023-03-24T13:50:53;2.50;;;1.30;;
9848;SDS011;4963;51.444;6.528;2023-03-24T13:53:29;3.00;;;1.33;;
9848;SDS011;4963;51.444;6.528;2023-03-24T13:56:04;3.87;;;1.50;;
9848;SDS011;4963;51.444;6.528;2023-03-24T13:58:45;2.90;;;1.27;;
9848;SDS011;4963;51.444;6.528;2023-03-24T14:01:16;3.53;;;1.67;;
9848;SDS011;4963;51.444;6.528;2023-03-24T14:06:52;2.83;;;1.60;;
9848;SDS011;4963;51.444;6.528;2023-03-24T14:09:20;4.40;;;1.50;;
9848;SDS011;4963;51.444;6.528;2023-03-24T14:11:49;3.50;;;1.57;;
9848;SDS011;4963;51.444;6.528;2023-03-24T14:15:01;2.53;;;1.33;;
9848;SDS011;4963;51.444;6.528;2023-03-24T14:17:44;2.83;;;1.30;;
9848;SDS011;4963;51.444;6.528;2023-03-24T14:20:23;5.13;;;1.70;;
9848;SDS011;4963;51.444;6.528;2023-03-24T14:22:52;6.03;;;1.60;;
9848;SDS011;4963;51.444;6.528;2023-03-24T14:25:23;2.87;;;1.63;;
9848;SDS011;4963;51.444;6.528;2023-03-24T14:27:52;4.07;;;2.17;;
9848;SDS011;4963;51.444;6.528;2023-03-24T14:30:22;3.43;;;1.80;;
9848;SDS011;4963;51.444;6.528;2023-03-24T14:32:52;4.93;;;1.80;;
9848;SDS011;4963;51.444;6.528;2023-03-24T14:35:23;2.37;;;1.50;;
9848;SDS011;4963;51.444;6.528;2023-03-24T14:37:55;3.63;;;1.50;;
9848;SDS011;4963;51.444;6.528;2023-03-24T14:40:25;2.73;;;1.87;;
9848;SDS011;4963;51.444;6.528;2023-03-24T14:43:02;3.10;;;1.50;;
9848;SDS011;4963;51.444;6.528;2023-03-24T14:45:50;3.53;;;1.60;;
9848;SDS011;4963;51.444;6.528;2023-03-24T14:48:21;4.43;;;2.30;;
9848;SDS011;4963;51.444;6.528;2023-03-24T14:51:02;6.43;;;2.00;;
9848;SDS011;4963;51.444;6.528;2023-03-24T14:53:34;4.80;;;1.90;;
9848;SDS011;4963;51.444;6.528;2023-03-24T14:56:04;5.53;;;2.10;;
9848;SDS011;4963;51.444;6.528;2023-03-24T14:58:35;2.80;;;1.40;;
9848;SDS011;4963;51.444;6.528;2023-03-24T15:01:05;4.07;;;1.43;;
9848;SDS011;4963;51.444;6.528;2023-03-24T15:03:35;3.70;;;1.50;;
9848;SDS011;4963;51.444;6.528;2023-03-24T15:06:13;6.77;;;1.60;;
9848;SDS011;4963;51.444;6.528;2023-03-24T15:08:45;3.93;;;1.90;;
9848;SDS011;4963;51.444;6.528;2023-03-24T15:11:16;5.47;;;1.90;;
9848;SDS011;4963;51.444;6.528;2023-03-24T15:13:47;6.43;;;2.20;;
9848;SDS011;4963;51.444;6.528;2023-03-24T15:16:20;4.50;;;2.03;;
9848;SDS011;4963;51.444;6.528;2023-03-24T15:18:49;3.30;;;1.67;;
9848;SDS011;4963;51.444;6.528;2023-03-24T15:21:22;8.30;;;2.37;;
9848;SDS011;4963;51.444;6.528;2023-03-24T15:23:55;5.70;;;2.00;;
9848;SDS011;4963;51.444;6.528;2023-03-24T15:26:22;3.73;;;1.93;;
9848;SDS011;4963;51.444;6.528;2023-03-24T15:28:54;3.50;;;1.80;;
9848;SDS011;4963;51.444;6.528;2023-03-24T15:31:24;3.90;;;1.87;;
9848;SDS011;4963;51.444;6.528;2023-03-24T15:34:00;5.80;;;2.20;;
9848;SDS011;4963;51.444;6.528;2023-03-24T15:36:32;6.57;;;2.97;;
9848;SDS011;4963;51.444;6.528;2023-03-24T15:39:14;6.23;;;2.93;;
9848;SDS011;4963;51.444;6.528;2023-03-24T15:41:42;4.60;;;2.20;;
9848;SDS011;4963;51.444;6.528;2023-03-24T15:46:45;7.40;;;2.47;;
9848;SDS011;4963;51.444;6.528;2023-03-24T15:49:17;3.87;;;2.00;;
9848;SDS011;4963;51.444;6.528;2023-03-24T15:51:48;5.47;;;2.53;;
9848;SDS011;4963;51.444;6.528;2023-03-24T15:54:20;4.57;;;1.90;;
9848;SDS011;4963;51.444;6.528;2023-03-24T15:57:02;9.40;;;3.20;;
9848;SDS011;4963;51.444;6.528;2023-03-24T15:59:44;7.27;;;2.23;;
9848;SDS011;4963;51.444;6.528;2023-03-24T16:02:19;4.73;;;2.43;;
9848;SDS011;4963;51.444;6.528;2023-03-24T16:04:56;5.07;;;2.17;;
9848;SDS011;4963;51.444;6.528;2023-03-24T16:07:27;5.00;;;2.00;;